sensor_id;sensor_type;location;lat;lon;timestamp;P1;durP1;ratioP1;P2;durP2;ratioP2
83704;SDS011;73687;55.712;12.564;2023-11-21T00:01:07;4.4;;;3.5;;
83704;SDS011;73687;55.712;12.564;2023-11-21T00:04:07;3.5;;;3.2;;
83704;SDS011;73687;55.712;12.564;2023-11-21T00:07:07;4.3;;;3.9;;
83704;SDS011;73687;55.712;12.564;2023-11-21T00:10:07;3.1;;;2.8;;
83704;SDS011;73687;55.712;12.564;2023-11-21T00:13:07;3.1;;;2.8;;
83704;SDS011;73687;55.712;12.564;2023-11-21T00:16:07;3.1;;;2.8;;
83704;SDS011;73687;55.712;12.564;2023-11-21T00:19:07;3.4;;;3.1;;
83704;SDS011;73687;55.712;12.564;2023-11-21T00:22:07;3.4;;;3.1;;
83704;SDS011;73687;55.712;12.564;2023-11-21T00:25:08;3.3;;;3.0;;
83704;SDS011;73687;55.712;12.564;2023-11-21T00:28:07;3.2;;;2.9;;
83704;SDS011;73687;55.712;12.564;2023-11-21T00:31:07;3.5;;;3.2;;
83704;SDS011;73687;55.712;12.564;2023-11-21T00:34:06;2.7;;;2.5;;
83704;SDS011;73687;55.712;12.564;2023-11-21T00:37:06;3.6;;;3.3;;
83704;SDS011;73687;55.712;12.564;2023-11-21T00:40:08;3.1;;;2.8;;
83704;SDS011;73687;55.712;12.564;2023-11-21T00:43:06;3.2;;;2.9;;
83704;SDS011;73687;55.712;12.564;2023-11-21T00:46:06;3.5;;;3.2;;
83704;SDS011;73687;55.712;12.564;2023-11-21T00:49:06;3.0;;;2.7;;
83704;SDS011;73687;55.712;12.564;2023-11-21T00:52:07;3.1;;;2.8;;
83704;SDS011;73687;55.712;12.564;2023-11-21T00:55:07;3.1;;;2.8;;
83704;SDS011;73687;55.712;12.564;2023-11-21T00:58:07;3.5;;;2.6;;
83704;SDS011;73687;55.712;12.564;2023-11-21T01:01:07;3.0;;;2.7;;
83704;SDS011;73687;55.712;12.564;2023-11-21T01:04:07;3.1;;;2.6;;
83704;SDS011;73687;55.712;12.564;2023-11-21T01:07:06;4.4;;;3.3;;
83704;SDS011;73687;55.712;12.564;2023-11-21T01:10:07;3.0;;;2.7;;
83704;SDS011;73687;55.712;12.564;2023-11-21T01:13:07;3.5;;;3.2;;
83704;SDS011;73687;55.712;12.564;2023-11-21T01:16:07;4.8;;;3.3;;
83704;SDS011;73687;55.712;12.564;2023-11-21T01:19:07;2.4;;;2.2;;
83704;SDS011;73687;55.712;12.564;2023-11-21T01:22:07;4.7;;;3.6;;
83704;SDS011;73687;55.712;12.564;2023-11-21T01:25:07;2.9;;;2.6;;
83704;SDS011;73687;55.712;12.564;2023-11-21T01:28:07;4.0;;;3.1;;
83704;SDS011;73687;55.712;12.564;2023-11-21T01:31:07;4.1;;;3.7;;
83704;SDS011;73687;55.712;12.564;2023-11-21T01:34:07;2.8;;;2.5;;
83704;SDS011;73687;55.712;12.564;2023-11-21T01:37:08;3.5;;;2.6;;
83704;SDS011;73687;55.712;12.564;2023-11-21T01:40:07;2.8;;;2.2;;
83704;SDS011;73687;55.712;12.564;2023-11-21T01:43:06;2.8;;;1.9;;
83704;SDS011;73687;55.712;12.564;2023-11-21T01:46:06;3.8;;;3.3;;
83704;SDS011;73687;55.712;12.564;2023-11-21T01:49:06;2.7;;;2.5;;
83704;SDS011;73687;55.712;12.564;2023-11-21T01:52:06;2.6;;;2.4;;
83704;SDS011;73687;55.712;12.564;2023-11-21T01:55:07;2.7;;;2.2;;
83704;SDS011;73687;55.712;12.564;2023-11-21T01:58:07;2.6;;;2.4;;
83704;SDS011;73687;55.712;12.564;2023-11-21T02:01:07;2.1;;;1.8;;
83704;SDS011;73687;55.712;12.564;2023-11-21T02:04:07;2.4;;;2.1;;
83704;SDS011;73687;55.712;12.564;2023-11-21T02:07:07;2.7;;;2.5;;
83704;SDS011;73687;55.712;12.564;2023-11-21T02:10:07;3.0;;;2.5;;
83704;SDS011;73687;55.712;12.564;2023-11-21T02:13:07;2.8;;;2.5;;
83704;SDS011;73687;55.712;12.564;2023-11-21T02:16:07;2.4;;;2.1;;
83704;SDS011;73687;55.712;12.564;2023-11-21T02:19:07;1.8;;;1.6;;
83704;SDS011;73687;55.712;12.564;2023-11-21T02:22:07;2.3;;;2.1;;
83704;SDS011;73687;55.712;12.564;2023-11-21T02:25:07;2.4;;;1.9;;
83704;SDS011;73687;55.712;12.564;2023-11-21T02:28:06;2.7;;;2.5;;
83704;SDS011;73687;55.712;12.564;2023-11-21T02:31:07;2.6;;;2.1;;
83704;SDS011;73687;55.712;12.564;2023-11-21T02:34:07;3.1;;;2.3;;
83704;SDS011;73687;55.712;12.564;2023-11-21T02:37:07;2.5;;;2.3;;
83704;SDS011;73687;55.712;12.564;2023-11-21T02:40:08;3.1;;;2.4;;
83704;SDS011;73687;55.712;12.564;2023-11-21T02:43:07;2.2;;;2.0;;
83704;SDS011;73687;55.712;12.564;2023-11-21T02:46:08;2.7;;;2.3;;
83704;SDS011;73687;55.712;12.564;2023-11-21T02:49:07;3.6;;;2.8;;
83704;SDS011;73687;55.712;12.564;2023-11-21T02:52:07;2.9;;;2.6;;
83704;SDS011;73687;55.712;12.564;2023-11-21T02:55:07;2.4;;;2.1;;
83704;SDS011;73687;55.712;12.564;2023-11-21T02:58:07;3.4;;;2.8;;
83704;SDS011;73687;55.712;12.564;2023-11-21T03:01:07;3.3;;;2.5;;
83704;SDS011;73687;55.712;12.564;2023-11-21T03:04:07;3.2;;;2.6;;
83704;SDS011;73687;55.712;12.564;2023-11-21T03:07:07;2.6;;;2.4;;
83704;SDS011;73687;55.712;12.564;2023-11-21T03:10:07;3.1;;;2.6;;
83704;SDS011;73687;55.712;12.564;2023-11-21T03:13:07;3.2;;;2.4;;
83704;SDS011;73687;55.712;12.564;2023-11-21T03:16:08;2.7;;;2.0;;
83704;SDS011;73687;55.712;12.564;2023-11-21T03:19:07;2.7;;;2.4;;
83704;SDS011;73687;55.712;12.564;2023-11-21T03:22:07;2.9;;;2.5;;
83704;SDS011;73687;55.712;12.564;2023-11-21T03:25:07;3.1;;;2.6;;
83704;SDS011;73687;55.712;12.564;2023-11-21T03:28:07;4.0;;;2.9;;
83704;SDS011;73687;55.712;12.564;2023-11-21T03:31:07;2.2;;;2.0;;
83704;SDS011;73687;55.712;12.564;2023-11-21T03:34:10;3.0;;;2.5;;
83704;SDS011;73687;55.712;12.564;2023-11-21T03:37:07;3.1;;;2.6;;
83704;SDS011;73687;55.712;12.564;2023-11-21T03:40:07;3.1;;;2.6;;
83704;SDS011;73687;55.712;12.564;2023-11-21T03:43:06;3.6;;;2.7;;
83704;SDS011;73687;55.712;12.564;2023-11-21T03:46:06;2.3;;;1.9;;
83704;SDS011;73687;55.712;12.564;2023-11-21T03:49:07;3.0;;;2.7;;
83704;SDS011;73687;55.712;12.564;2023-11-21T03:52:07;4.5;;;3.5;;
83704;SDS011;73687;55.712;12.564;2023-11-21T03:55:07;3.9;;;2.9;;
83704;SDS011;73687;55.712;12.564;2023-11-21T03:58:07;3.2;;;2.7;;
83704;SDS011;73687;55.712;12.564;2023-11-21T04:01:07;3.0;;;2.3;;
83704;SDS011;73687;55.712;12.564;2023-11-21T04:04:07;2.6;;;2.3;;
83704;SDS011;73687;55.712;12.564;2023-11-21T04:07:08;2.3;;;2.1;;
83704;SDS011;73687;55.712;12.564;2023-11-21T04:10:07;4.4;;;3.6;;
83704;SDS011;73687;55.712;12.564;2023-11-21T04:13:07;2.5;;;2.2;;
83704;SDS011;73687;55.712;12.564;2023-11-21T04:16:07;3.0;;;2.5;;
83704;SDS011;73687;55.712;12.564;2023-11-21T04:19:07;3.5;;;2.7;;
83704;SDS011;73687;55.712;12.564;2023-11-21T04:22:07;3.9;;;2.6;;
83704;SDS011;73687;55.712;12.564;2023-11-21T04:25:08;2.9;;;2.3;;
83704;SDS011;73687;55.712;12.564;2023-11-21T04:28:06;3.4;;;3.0;;
83704;SDS011;73687;55.712;12.564;2023-11-21T04:31:06;3.6;;;3.3;;
83704;SDS011;73687;55.712;12.564;2023-11-21T04:34:06;3.6;;;3.3;;
83704;SDS011;73687;55.712;12.564;2023-11-21T04:37:06;3.2;;;2.9;;
83704;SDS011;73687;55.712;12.564;2023-11-21T04:40:08;4.2;;;3.1;;
83704;SDS011;73687;55.712;12.564;2023-11-21T04:43:07;3.3;;;2.9;;
83704;SDS011;73687;55.712;12.564;2023-11-21T04:46:07;3.2;;;2.8;;
83704;SDS011;73687;55.712;12.564;2023-11-21T04:49:07;3.1;;;2.8;;
83704;SDS011;73687;55.712;12.564;2023-11-21T04:52:06;3.0;;;2.8;;
83704;SDS011;73687;55.712;12.564;2023-11-21T04:55:07;3.0;;;2.7;;
83704;SDS011;73687;55.712;12.564;2023-11-21T04:58:07;3.2;;;2.9;;
83704;SDS011;73687;55.712;12.564;2023-11-21T05:01:08;3.8;;;3.2;;
83704;SDS011;73687;55.712;12.564;2023-11-21T05:04:07;4.7;;;3.5;;
83704;SDS011;73687;55.712;12.564;2023-11-21T05:07:06;3.5;;;3.2;;
83704;SDS011;73687;55.712;12.564;2023-11-21T05:10:07;3.9;;;3.1;;
83704;SDS011;73687;55.712;12.564;2023-11-21T05:13:07;3.7;;;3.3;;
83704;SDS011;73687;55.712;12.564;2023-11-21T05:16:07;3.4;;;2.9;;
83704;SDS011;73687;55.712;12.564;2023-11-21T05:19:06;3.2;;;2.9;;
83704;SDS011;73687;55.712;12.564;2023-11-21T05:22:07;4.1;;;3.4;;
83704;SDS011;73687;55.712;12.564;2023-11-21T05:25:08;4.2;;;3.6;;
83704;SDS011;73687;55.712;12.564;2023-11-21T05:28:07;3.5;;;2.7;;
83704;SDS011;73687;55.712;12.564;2023-11-21T05:31:07;3.0;;;2.6;;
83704;SDS011;73687;55.712;12.564;2023-11-21T05:34:06;4.0;;;3.5;;
83704;SDS011;73687;55.712;12.564;2023-11-21T05:37:06;3.4;;;2.8;;
83704;SDS011;73687;55.712;12.564;2023-11-21T05:40:07;3.3;;;2.9;;
83704;SDS011;73687;55.712;12.564;2023-11-21T05:43:06;3.3;;;2.8;;
83704;SDS011;73687;55.712;12.564;2023-11-21T05:46:07;2.8;;;2.3;;
83704;SDS011;73687;55.712;12.564;2023-11-21T05:49:07;3.1;;;2.8;;
83704;SDS011;73687;55.712;12.564;2023-11-21T05:52:07;4.7;;;3.1;;
83704;SDS011;73687;55.712;12.564;2023-11-21T05:55:07;3.1;;;2.8;;
83704;SDS011;73687;55.712;12.564;2023-11-21T05:58:06;2.9;;;2.4;;
83704;SDS011;73687;55.712;12.564;2023-11-21T06:01:07;2.8;;;2.4;;
83704;SDS011;73687;55.712;12.564;2023-11-21T06:04:07;2.6;;;2.0;;
83704;SDS011;73687;55.712;12.564;2023-11-21T06:07:07;3.4;;;2.5;;
83704;SDS011;73687;55.712;12.564;2023-11-21T06:10:07;3.6;;;2.7;;
83704;SDS011;73687;55.712;12.564;2023-11-21T06:13:06;3.1;;;2.6;;
83704;SDS011;73687;55.712;12.564;2023-11-21T06:16:07;3.2;;;2.6;;
83704;SDS011;73687;55.712;12.564;2023-11-21T06:19:07;2.7;;;2.5;;
83704;SDS011;73687;55.712;12.564;2023-11-21T06:22:07;3.1;;;2.4;;
83704;SDS011;73687;55.712;12.564;2023-11-21T06:25:07;2.5;;;2.3;;
83704;SDS011;73687;55.712;12.564;2023-11-21T06:28:06;2.8;;;2.2;;
83704;SDS011;73687;55.712;12.564;2023-11-21T06:31:06;3.3;;;2.7;;
83704;SDS011;73687;55.712;12.564;2023-11-21T06:34:07;2.9;;;2.6;;
83704;SDS011;73687;55.712;12.564;2023-11-21T06:37:07;3.0;;;2.6;;
83704;SDS011;73687;55.712;12.564;2023-11-21T06:40:07;2.1;;;1.9;;
83704;SDS011;73687;55.712;12.564;2023-11-21T06:43:06;3.0;;;2.6;;
83704;SDS011;73687;55.712;12.564;2023-11-21T06:46:06;2.4;;;2.1;;
83704;SDS011;73687;55.712;12.564;2023-11-21T06:49:07;2.7;;;2.4;;
83704;SDS011;73687;55.712;12.564;2023-11-21T06:52:07;3.4;;;2.5;;
83704;SDS011;73687;55.712;12.564;2023-11-21T06:55:07;2.2;;;2.0;;
83704;SDS011;73687;55.712;12.564;2023-11-21T06:58:07;2.6;;;2.4;;
83704;SDS011;73687;55.712;12.564;2023-11-21T07:01:07;2.6;;;2.0;;
83704;SDS011;73687;55.712;12.564;2023-11-21T07:04:07;2.4;;;2.0;;
83704;SDS011;73687;55.712;12.564;2023-11-21T07:07:07;1.8;;;1.6;;
83704;SDS011;73687;55.712;12.564;2023-11-21T07:10:07;2.3;;;2.1;;
83704;SDS011;73687;55.712;12.564;2023-11-21T07:13:07;2.2;;;2.0;;
83704;SDS011;73687;55.712;12.564;2023-11-21T07:16:07;3.3;;;2.1;;
83704;SDS011;73687;55.712;12.564;2023-11-21T07:19:07;2.8;;;2.1;;
83704;SDS011;73687;55.712;12.564;2023-11-21T07:22:07;4.0;;;2.7;;
83704;SDS011;73687;55.712;12.564;2023-11-21T07:25:07;2.6;;;1.9;;
83704;SDS011;73687;55.712;12.564;2023-11-21T07:28:07;2.5;;;2.0;;
83704;SDS011;73687;55.712;12.564;2023-11-21T07:31:07;2.5;;;2.0;;
83704;SDS011;73687;55.712;12.564;2023-11-21T07:34:07;2.5;;;1.7;;
83704;SDS011;73687;55.712;12.564;2023-11-21T07:37:07;2.6;;;2.2;;
83704;SDS011;73687;55.712;12.564;2023-11-21T07:40:07;3.0;;;2.2;;
83704;SDS011;73687;55.712;12.564;2023-11-21T07:43:07;2.9;;;2.4;;
83704;SDS011;73687;55.712;12.564;2023-11-21T07:46:07;2.4;;;2.2;;
83704;SDS011;73687;55.712;12.564;2023-11-21T07:49:07;2.6;;;2.3;;
83704;SDS011;73687;55.712;12.564;2023-11-21T07:52:06;3.3;;;2.1;;
83704;SDS011;73687;55.712;12.564;2023-11-21T07:55:06;3.3;;;2.9;;
83704;SDS011;73687;55.712;12.564;2023-11-21T07:58:06;2.8;;;2.4;;
83704;SDS011;73687;55.712;12.564;2023-11-21T08:01:06;2.6;;;2.3;;
83704;SDS011;73687;55.712;12.564;2023-11-21T08:04:06;2.7;;;2.3;;
83704;SDS011;73687;55.712;12.564;2023-11-21T08:07:07;2.6;;;2.2;;
83704;SDS011;73687;55.712;12.564;2023-11-21T08:10:08;2.3;;;1.8;;
83704;SDS011;73687;55.712;12.564;2023-11-21T08:13:07;2.9;;;2.6;;
83704;SDS011;73687;55.712;12.564;2023-11-21T08:16:07;2.5;;;1.9;;
83704;SDS011;73687;55.712;12.564;2023-11-21T08:19:07;2.4;;;2.1;;
83704;SDS011;73687;55.712;12.564;2023-11-21T08:22:07;2.8;;;2.0;;
83704;SDS011;73687;55.712;12.564;2023-11-21T08:25:07;3.2;;;2.6;;
83704;SDS011;73687;55.712;12.564;2023-11-21T08:28:06;2.5;;;2.3;;
83704;SDS011;73687;55.712;12.564;2023-11-21T08:31:07;4.1;;;3.8;;
83704;SDS011;73687;55.712;12.564;2023-11-21T08:34:07;10.9;;;10.4;;
83704;SDS011;73687;55.712;12.564;2023-11-21T08:37:07;12.2;;;11.7;;
83704;SDS011;73687;55.712;12.564;2023-11-21T08:40:07;12.2;;;11.6;;
83704;SDS011;73687;55.712;12.564;2023-11-21T08:43:07;17.8;;;17.1;;
83704;SDS011;73687;55.712;12.564;2023-11-21T08:46:06;17.5;;;16.8;;
83704;SDS011;73687;55.712;12.564;2023-11-21T08:49:07;2.7;;;2.4;;
83704;SDS011;73687;55.712;12.564;2023-11-21T08:52:06;11.6;;;11.1;;
83704;SDS011;73687;55.712;12.564;2023-11-21T08:55:07;4.3;;;3.9;;
83704;SDS011;73687;55.712;12.564;2023-11-21T08:58:07;5.0;;;4.7;;
83704;SDS011;73687;55.712;12.564;2023-11-21T09:01:07;2.7;;;2.5;;
83704;SDS011;73687;55.712;12.564;2023-11-21T09:04:06;2.7;;;2.4;;
83704;SDS011;73687;55.712;12.564;2023-11-21T09:07:06;2.1;;;1.9;;
83704;SDS011;73687;55.712;12.564;2023-11-21T09:10:07;2.7;;;2.5;;
83704;SDS011;73687;55.712;12.564;2023-11-21T09:13:07;2.9;;;2.7;;
83704;SDS011;73687;55.712;12.564;2023-11-21T09:16:07;2.4;;;1.9;;
83704;SDS011;73687;55.712;12.564;2023-11-21T09:19:07;2.6;;;2.4;;
83704;SDS011;73687;55.712;12.564;2023-11-21T09:22:07;3.2;;;2.1;;
83704;SDS011;73687;55.712;12.564;2023-11-21T09:25:07;2.6;;;2.0;;
83704;SDS011;73687;55.712;12.564;2023-11-21T09:28:06;3.1;;;2.0;;
83704;SDS011;73687;55.712;12.564;2023-11-21T09:31:07;2.8;;;2.1;;
83704;SDS011;73687;55.712;12.564;2023-11-21T09:34:07;2.5;;;1.9;;
83704;SDS011;73687;55.712;12.564;2023-11-21T09:37:07;1.6;;;1.5;;
83704;SDS011;73687;55.712;12.564;2023-11-21T09:40:08;2.2;;;2.0;;
83704;SDS011;73687;55.712;12.564;2023-11-21T09:43:08;2.2;;;1.7;;
83704;SDS011;73687;55.712;12.564;2023-11-21T09:46:07;2.7;;;1.8;;
83704;SDS011;73687;55.712;12.564;2023-11-21T09:49:07;2.1;;;1.4;;
83704;SDS011;73687;55.712;12.564;2023-11-21T09:52:07;1.8;;;1.5;;
83704;SDS011;73687;55.712;12.564;2023-11-21T09:55:07;1.7;;;1.4;;
83704;SDS011;73687;55.712;12.564;2023-11-21T09:58:06;2.0;;;1.3;;
83704;SDS011;73687;55.712;12.564;2023-11-21T10:01:07;2.5;;;1.9;;
83704;SDS011;73687;55.712;12.564;2023-11-21T10:04:07;1.6;;;1.5;;
83704;SDS011;73687;55.712;12.564;2023-11-21T10:07:07;2.0;;;1.4;;
83704;SDS011;73687;55.712;12.564;2023-11-21T10:10:07;2.3;;;1.5;;
83704;SDS011;73687;55.712;12.564;2023-11-21T10:13:06;3.1;;;1.7;;
83704;SDS011;73687;55.712;12.564;2023-11-21T10:16:07;2.2;;;1.4;;
83704;SDS011;73687;55.712;12.564;2023-11-21T10:19:07;1.7;;;1.3;;
83704;SDS011;73687;55.712;12.564;2023-11-21T10:22:07;2.2;;;1.5;;
83704;SDS011;73687;55.712;12.564;2023-11-21T10:25:07;2.0;;;1.5;;
83704;SDS011;73687;55.712;12.564;2023-11-21T10:28:07;2.0;;;1.6;;
83704;SDS011;73687;55.712;12.564;2023-11-21T10:31:07;1.8;;;1.3;;
83704;SDS011;73687;55.712;12.564;2023-11-21T10:34:14;2.9;;;1.3;;
83704;SDS011;73687;55.712;12.564;2023-11-21T10:37:11;1.2;;;1.0;;
83704;SDS011;73687;55.712;12.564;2023-11-21T10:40:07;1.6;;;1.1;;
83704;SDS011;73687;55.712;12.564;2023-11-21T10:43:07;2.2;;;1.4;;
83704;SDS011;73687;55.712;12.564;2023-11-21T10:46:07;1.1;;;1.0;;
83704;SDS011;73687;55.712;12.564;2023-11-21T10:49:07;1.9;;;1.5;;
83704;SDS011;73687;55.712;12.564;2023-11-21T10:52:06;1.7;;;1.4;;
83704;SDS011;73687;55.712;12.564;2023-11-21T10:55:15;2.1;;;1.7;;
83704;SDS011;73687;55.712;12.564;2023-11-21T10:58:06;1.7;;;1.4;;
83704;SDS011;73687;55.712;12.564;2023-11-21T11:01:06;1.5;;;1.3;;
83704;SDS011;73687;55.712;12.564;2023-11-21T11:04:06;1.7;;;1.2;;
83704;SDS011;73687;55.712;12.564;2023-11-21T11:07:07;1.8;;;1.3;;
83704;SDS011;73687;55.712;12.564;2023-11-21T11:10:07;2.1;;;1.5;;
83704;SDS011;73687;55.712;12.564;2023-11-21T11:13:07;1.9;;;1.4;;
83704;SDS011;73687;55.712;12.564;2023-11-21T11:16:07;1.5;;;1.1;;
83704;SDS011;73687;55.712;12.564;2023-11-21T11:19:07;1.5;;;1.0;;
83704;SDS011;73687;55.712;12.564;2023-11-21T11:22:10;1.6;;;1.1;;
83704;SDS011;73687;55.712;12.564;2023-11-21T11:25:12;1.9;;;1.6;;
83704;SDS011;73687;55.712;12.564;2023-11-21T11:28:08;2.2;;;1.4;;
83704;SDS011;73687;55.712;12.564;2023-11-21T11:31:10;2.6;;;1.3;;
83704;SDS011;73687;55.712;12.564;2023-11-21T11:34:08;3.2;;;1.1;;
83704;SDS011;73687;55.712;12.564;2023-11-21T11:37:12;1.7;;;1.5;;
83704;SDS011;73687;55.712;12.564;2023-11-21T11:40:07;1.9;;;1.5;;
83704;SDS011;73687;55.712;12.564;2023-11-21T11:43:07;2.3;;;1.3;;
83704;SDS011;73687;55.712;12.564;2023-11-21T11:46:07;2.0;;;1.2;;
83704;SDS011;73687;55.712;12.564;2023-11-21T11:49:06;2.9;;;1.6;;
83704;SDS011;73687;55.712;12.564;2023-11-21T11:55:08;1.9;;;1.1;;
83704;SDS011;73687;55.712;12.564;2023-11-21T11:58:07;1.5;;;1.1;;
83704;SDS011;73687;55.712;12.564;2023-11-21T12:01:06;2.5;;;1.5;;
83704;SDS011;73687;55.712;12.564;2023-11-21T12:04:24;1.9;;;1.2;;
83704;SDS011;73687;55.712;12.564;2023-11-21T12:07:07;2.1;;;1.1;;
83704;SDS011;73687;55.712;12.564;2023-11-21T12:10:07;3.7;;;1.7;;
83704;SDS011;73687;55.712;12.564;2023-11-21T12:13:07;2.1;;;1.4;;
83704;SDS011;73687;55.712;12.564;2023-11-21T12:16:07;1.9;;;1.2;;
83704;SDS011;73687;55.712;12.564;2023-11-21T12:19:07;2.8;;;1.6;;
83704;SDS011;73687;55.712;12.564;2023-11-21T12:22:07;1.3;;;1.2;;
83704;SDS011;73687;55.712;12.564;2023-11-21T12:25:07;1.7;;;1.2;;
83704;SDS011;73687;55.712;12.564;2023-11-21T12:28:07;1.5;;;1.2;;
83704;SDS011;73687;55.712;12.564;2023-11-21T12:31:07;1.5;;;1.3;;
83704;SDS011;73687;55.712;12.564;2023-11-21T12:34:07;2.3;;;1.5;;
83704;SDS011;73687;55.712;12.564;2023-11-21T12:37:07;1.6;;;1.3;;
83704;SDS011;73687;55.712;12.564;2023-11-21T12:40:07;1.6;;;1.0;;
83704;SDS011;73687;55.712;12.564;2023-11-21T12:43:06;2.0;;;1.3;;
83704;SDS011;73687;55.712;12.564;2023-11-21T12:46:07;1.4;;;1.0;;
83704;SDS011;73687;55.712;12.564;2023-11-21T12:49:07;1.8;;;1.6;;
83704;SDS011;73687;55.712;12.564;2023-11-21T12:52:07;1.8;;;1.2;;
83704;SDS011;73687;55.712;12.564;2023-11-21T12:55:07;2.6;;;1.7;;
83704;SDS011;73687;55.712;12.564;2023-11-21T12:58:07;2.3;;;1.9;;
83704;SDS011;73687;55.712;12.564;2023-11-21T13:01:07;2.4;;;2.1;;
83704;SDS011;73687;55.712;12.564;2023-11-21T13:04:07;2.3;;;1.7;;
83704;SDS011;73687;55.712;12.564;2023-11-21T13:07:07;1.9;;;1.4;;
83704;SDS011;73687;55.712;12.564;2023-11-21T13:10:07;1.5;;;1.3;;
83704;SDS011;73687;55.712;12.564;2023-11-21T13:13:07;1.5;;;1.4;;
83704;SDS011;73687;55.712;12.564;2023-11-21T13:16:07;1.9;;;1.5;;
83704;SDS011;73687;55.712;12.564;2023-11-21T13:19:07;1.8;;;1.0;;
83704;SDS011;73687;55.712;12.564;2023-11-21T13:22:07;2.1;;;1.3;;
83704;SDS011;73687;55.712;12.564;2023-11-21T13:25:12;3.2;;;2.3;;
83704;SDS011;73687;55.712;12.564;2023-11-21T13:28:07;2.1;;;1.7;;
83704;SDS011;73687;55.712;12.564;2023-11-21T13:31:07;2.3;;;1.3;;
83704;SDS011;73687;55.712;12.564;2023-11-21T13:34:07;2.0;;;1.7;;
83704;SDS011;73687;55.712;12.564;2023-11-21T13:37:07;1.8;;;1.3;;
83704;SDS011;73687;55.712;12.564;2023-11-21T13:40:08;1.8;;;1.5;;
83704;SDS011;73687;55.712;12.564;2023-11-21T13:43:06;1.7;;;1.5;;
83704;SDS011;73687;55.712;12.564;2023-11-21T13:46:07;2.5;;;1.7;;
83704;SDS011;73687;55.712;12.564;2023-11-21T13:49:19;1.8;;;1.4;;
83704;SDS011;73687;55.712;12.564;2023-11-21T13:52:08;1.8;;;1.3;;
83704;SDS011;73687;55.712;12.564;2023-11-21T13:55:07;1.7;;;1.6;;
83704;SDS011;73687;55.712;12.564;2023-11-21T13:58:07;1.8;;;1.1;;
83704;SDS011;73687;55.712;12.564;2023-11-21T14:01:07;2.2;;;1.6;;
83704;SDS011;73687;55.712;12.564;2023-11-21T14:04:07;2.5;;;1.1;;
83704;SDS011;73687;55.712;12.564;2023-11-21T14:07:07;1.5;;;1.1;;
83704;SDS011;73687;55.712;12.564;2023-11-21T14:10:07;1.4;;;1.1;;
83704;SDS011;73687;55.712;12.564;2023-11-21T14:13:07;2.3;;;1.5;;
83704;SDS011;73687;55.712;12.564;2023-11-21T14:16:07;2.2;;;1.2;;
83704;SDS011;73687;55.712;12.564;2023-11-21T14:19:07;2.5;;;1.9;;
83704;SDS011;73687;55.712;12.564;2023-11-21T14:22:07;1.8;;;1.4;;
83704;SDS011;73687;55.712;12.564;2023-11-21T14:25:07;2.9;;;1.5;;
83704;SDS011;73687;55.712;12.564;2023-11-21T14:28:07;1.4;;;1.2;;
83704;SDS011;73687;55.712;12.564;2023-11-21T14:31:07;1.5;;;1.4;;
83704;SDS011;73687;55.712;12.564;2023-11-21T14:34:07;1.5;;;1.3;;
83704;SDS011;73687;55.712;12.564;2023-11-21T14:37:06;1.4;;;1.0;;
83704;SDS011;73687;55.712;12.564;2023-11-21T14:40:07;1.6;;;1.5;;
83704;SDS011;73687;55.712;12.564;2023-11-21T14:43:07;2.5;;;1.5;;
83704;SDS011;73687;55.712;12.564;2023-11-21T14:46:07;1.9;;;1.3;;
83704;SDS011;73687;55.712;12.564;2023-11-21T14:49:07;2.2;;;1.7;;
83704;SDS011;73687;55.712;12.564;2023-11-21T14:52:07;1.7;;;1.4;;
83704;SDS011;73687;55.712;12.564;2023-11-21T14:55:07;1.8;;;1.4;;
83704;SDS011;73687;55.712;12.564;2023-11-21T14:58:06;3.3;;;1.6;;
83704;SDS011;73687;55.712;12.564;2023-11-21T15:01:06;1.9;;;1.4;;
83704;SDS011;73687;55.712;12.564;2023-11-21T15:04:07;1.6;;;1.4;;
83704;SDS011;73687;55.712;12.564;2023-11-21T15:07:06;1.7;;;1.3;;
83704;SDS011;73687;55.712;12.564;2023-11-21T15:10:07;2.6;;;1.1;;
83704;SDS011;73687;55.712;12.564;2023-11-21T15:13:07;1.6;;;1.5;;
83704;SDS011;73687;55.712;12.564;2023-11-21T15:16:07;1.9;;;1.3;;
83704;SDS011;73687;55.712;12.564;2023-11-21T15:19:07;1.4;;;1.2;;
83704;SDS011;73687;55.712;12.564;2023-11-21T15:22:07;3.1;;;2.0;;
83704;SDS011;73687;55.712;12.564;2023-11-21T15:25:07;1.7;;;1.5;;
83704;SDS011;73687;55.712;12.564;2023-11-21T15:28:07;1.6;;;1.4;;
83704;SDS011;73687;55.712;12.564;2023-11-21T15:31:07;1.9;;;1.4;;
83704;SDS011;73687;55.712;12.564;2023-11-21T15:34:07;2.2;;;1.9;;
83704;SDS011;73687;55.712;12.564;2023-11-21T15:37:07;1.9;;;1.6;;
83704;SDS011;73687;55.712;12.564;2023-11-21T15:40:07;1.9;;;1.5;;
83704;SDS011;73687;55.712;12.564;2023-11-21T15:43:07;1.7;;;1.6;;
83704;SDS011;73687;55.712;12.564;2023-11-21T15:46:07;2.0;;;1.4;;
83704;SDS011;73687;55.712;12.564;2023-11-21T15:49:07;1.8;;;1.4;;
83704;SDS011;73687;55.712;12.564;2023-11-21T15:52:07;2.3;;;1.8;;
83704;SDS011;73687;55.712;12.564;2023-11-21T15:55:07;1.7;;;1.4;;
83704;SDS011;73687;55.712;12.564;2023-11-21T15:58:07;2.6;;;1.7;;
83704;SDS011;73687;55.712;12.564;2023-11-21T16:01:06;1.9;;;1.6;;
83704;SDS011;73687;55.712;12.564;2023-11-21T16:04:07;2.5;;;1.5;;
83704;SDS011;73687;55.712;12.564;2023-11-21T16:07:06;2.5;;;1.6;;
83704;SDS011;73687;55.712;12.564;2023-11-21T16:10:07;1.9;;;1.5;;
83704;SDS011;73687;55.712;12.564;2023-11-21T16:13:07;1.9;;;1.6;;
83704;SDS011;73687;55.712;12.564;2023-11-21T16:16:08;2.0;;;1.5;;
83704;SDS011;73687;55.712;12.564;2023-11-21T16:19:07;1.9;;;1.7;;
83704;SDS011;73687;55.712;12.564;2023-11-21T16:22:07;21.0;;;18.8;;
83704;SDS011;73687;55.712;12.564;2023-11-21T16:25:07;10.1;;;9.0;;
83704;SDS011;73687;55.712;12.564;2023-11-21T16:28:06;5.7;;;5.0;;
83704;SDS011;73687;55.712;12.564;2023-11-21T16:31:07;3.4;;;3.1;;
83704;SDS011;73687;55.712;12.564;2023-11-21T16:34:11;2.4;;;2.1;;
83704;SDS011;73687;55.712;12.564;2023-11-21T16:37:07;2.5;;;1.7;;
83704;SDS011;73687;55.712;12.564;2023-11-21T16:40:07;2.1;;;1.9;;
83704;SDS011;73687;55.712;12.564;2023-11-21T16:43:07;1.9;;;1.7;;
83704;SDS011;73687;55.712;12.564;2023-11-21T16:46:06;1.4;;;1.2;;
83704;SDS011;73687;55.712;12.564;2023-11-21T16:49:06;1.7;;;1.1;;
83704;SDS011;73687;55.712;12.564;2023-11-21T16:52:06;1.4;;;0.9;;
83704;SDS011;73687;55.712;12.564;2023-11-21T16:55:06;1.2;;;0.8;;
83704;SDS011;73687;55.712;12.564;2023-11-21T16:58:07;1.6;;;1.0;;
83704;SDS011;73687;55.712;12.564;2023-11-21T17:01:07;1.8;;;1.0;;
83704;SDS011;73687;55.712;12.564;2023-11-21T17:04:07;1.5;;;1.2;;
83704;SDS011;73687;55.712;12.564;2023-11-21T17:07:07;1.2;;;0.9;;
83704;SDS011;73687;55.712;12.564;2023-11-21T17:10:07;1.7;;;1.2;;
83704;SDS011;73687;55.712;12.564;2023-11-21T17:13:07;1.5;;;1.3;;
83704;SDS011;73687;55.712;12.564;2023-11-21T17:16:07;1.7;;;1.3;;
83704;SDS011;73687;55.712;12.564;2023-11-21T17:19:07;2.1;;;1.4;;
83704;SDS011;73687;55.712;12.564;2023-11-21T17:22:07;1.1;;;0.9;;
83704;SDS011;73687;55.712;12.564;2023-11-21T17:25:08;1.7;;;1.3;;
83704;SDS011;73687;55.712;12.564;2023-11-21T17:28:07;7.0;;;5.9;;
83704;SDS011;73687;55.712;12.564;2023-11-21T17:31:07;9.0;;;8.1;;
83704;SDS011;73687;55.712;12.564;2023-11-21T17:34:07;5.7;;;5.2;;
83704;SDS011;73687;55.712;12.564;2023-11-21T17:37:07;3.3;;;2.8;;
83704;SDS011;73687;55.712;12.564;2023-11-21T17:40:07;2.5;;;2.0;;
83704;SDS011;73687;55.712;12.564;2023-11-21T17:43:07;2.0;;;1.7;;
83704;SDS011;73687;55.712;12.564;2023-11-21T17:46:07;2.2;;;1.4;;
83704;SDS011;73687;55.712;12.564;2023-11-21T17:49:07;2.3;;;1.7;;
83704;SDS011;73687;55.712;12.564;2023-11-21T17:52:07;1.8;;;1.4;;
83704;SDS011;73687;55.712;12.564;2023-11-21T17:55:07;2.1;;;1.4;;
83704;SDS011;73687;55.712;12.564;2023-11-21T17:58:07;2.0;;;1.4;;
83704;SDS011;73687;55.712;12.564;2023-11-21T18:01:07;1.8;;;1.5;;
83704;SDS011;73687;55.712;12.564;2023-11-21T18:04:07;25.1;;;22.6;;
83704;SDS011;73687;55.712;12.564;2023-11-21T18:07:07;18.4;;;16.4;;
83704;SDS011;73687;55.712;12.564;2023-11-21T18:10:12;10.9;;;9.8;;
83704;SDS011;73687;55.712;12.564;2023-11-21T18:13:07;5.0;;;4.4;;
83704;SDS011;73687;55.712;12.564;2023-11-21T18:16:07;3.6;;;3.0;;
83704;SDS011;73687;55.712;12.564;2023-11-21T18:19:07;2.7;;;2.2;;
83704;SDS011;73687;55.712;12.564;2023-11-21T18:22:12;2.0;;;1.8;;